Time;durP1;ratioP1;P1;durP2;ratioP2;P2;SDS_P1;SDS_P2;PMS_P1;PMS_P2;Temp;Humidity;BMP_temperature;BMP_pressure;BME280_temperature;BME280_humidity;BME280_pressure;Samples;Min_cycle;Max_cycle;Signal;HPM_P1;HPM_P2
2022/08/07 00:04:47;;;;;;;;;;;;;;;18.04;100.00;101398.19;10062262;29;19928;-73
2022/08/07 00:09:52;;;;;;;;;;;;;;;18.02;99.58;101399.97;10062043;29;19928;-71
2022/08/07 00:15:15;;;;;;;;;;;;;;;17.96;99.41;101410.66;10061785;29;19939;-72
2022/08/07 00:20:18;;;;;;;;;;;;;;;17.84;98.21;101420.56;10061927;29;19939;-70
2022/08/07 00:25:37;;;;;;;;;;;;;;;17.81;97.60;101420.63;10061465;29;19928;-69
2022/08/07 00:30:43;;;;;;;;;;;;;;;17.77;97.53;101422.47;10061518;29;19935;-69
2022/08/07 00:35:47;;;;;;;;;;;;;;;17.79;97.94;101419.81;10061133;29;19972;-70
2022/08/07 00:40:52;;;;;;;;;;;;;;;17.74;98.00;101424.28;10060839;29;19932;-72
2022/08/07 00:45:55;;;;;;;;;;;;;;;17.66;97.70;101427.09;10061070;29;19935;-74
2022/08/07 00:50:59;;;;;;;;;;;;;;;17.56;97.51;101430.81;10062545;29;20015;-74
2022/08/07 00:56:04;;;;;;;;;;;;;;;17.47;98.39;101432.75;10063283;29;19939;-74
2022/08/07 01:01:15;;;;;;;;;;;;;;;17.43;98.02;101423.19;10063199;29;20278;-71
2022/08/07 01:06:19;;;;;;;;;;;;;;;17.32;99.58;101426.88;10063303;29;19983;-71
2022/08/07 01:11:25;;;;;;;;;;;;;;;17.36;99.26;101424.22;10062113;29;19929;-72
2022/08/07 01:16:49;;;;;;;;;;;;;;;17.31;99.53;101424.28;10062925;29;20306;-73
2022/08/07 01:21:54;;;;;;;;;;;;;;;17.21;98.93;101428.00;10063203;29;19928;-74
2022/08/07 01:26:58;;;;;;;;;;;;;;;17.18;99.21;101423.69;10063076;29;19940;-75
2022/08/07 01:32:02;;;;;;;;;;;;;;;17.11;98.73;101424.72;10062501;29;19940;-72
2022/08/07 01:37:11;;;;;;;;;;;;;;;17.05;98.67;101426.59;10062239;29;19928;-75
2022/08/07 01:42:15;;;;;;;;;;;;;;;16.96;99.26;101438.09;10062247;29;20068;-74
2022/08/07 01:47:38;;;;;;;;;;;;;;;16.94;99.12;101433.81;10062053;29;19928;-74
2022/08/07 01:53:03;;;;;;;;;;;;;;;16.90;99.38;101432.13;10062266;29;19935;-72
2022/08/07 01:58:13;;;;;;;;;;;;;;;16.94;99.38;101423.31;10061947;29;19928;-72
2022/08/07 02:03:33;;;;;;;;;;;;;;;16.81;99.58;101427.91;10061798;29;20299;-70
2022/08/07 02:08:53;;;;;;;;;;;;;;;16.79;100.00;101432.31;10061829;29;20075;-74
2022/08/07 02:13:57;;;;;;;;;;;;;;;16.71;100.00;101436.84;10063129;29;19935;-73
2022/08/07 02:19:06;;;;;;;;;;;;;;;16.63;100.00;101422.13;10062562;29;20272;-72
2022/08/07 02:24:30;;;;;;;;;;;;;;;16.61;100.00;101423.91;10069047;29;19928;-70
2022/08/07 02:29:35;;;;;;;;;;;;;;;16.54;100.00;101424.91;10068938;29;19964;-69
2022/08/07 02:34:56;;;;;;;;;;;;;;;16.51;100.00;101423.22;10068567;29;19928;-73
2022/08/07 02:40:01;;;;;;;;;;;;;;;16.54;100.00;101433.66;10068167;29;20361;-72
2022/08/07 02:45:26;;;;;;;;;;;;;;;16.54;100.00;101414.44;10068965;29;19928;-73
2022/08/07 02:50:52;;;;;;;;;;;;;;;16.45;100.00;101431.16;10068957;29;19928;-73
2022/08/07 02:55:57;;;;;;;;;;;;;;;16.36;100.00;101439.16;10068403;29;19928;-72
2022/08/07 03:01:07;;;;;;;;;;;;;;;16.30;100.00;101434.03;10067731;29;19936;-74
2022/08/07 03:06:21;;;;;;;;;;;;;;;16.35;100.00;101429.56;10067615;29;19928;-72
2022/08/07 03:11:37;;;;;;;;;;;;;;;16.29;100.00;101441.91;10067417;29;19936;-70
2022/08/07 03:16:53;;;;;;;;;;;;;;;16.28;100.00;101435.81;10067026;29;19928;-73
2022/08/07 03:21:56;;;;;;;;;;;;;;;16.19;100.00;101442.06;10067039;29;19928;-73
2022/08/07 03:27:03;;;;;;;;;;;;;;;16.20;100.00;101435.06;10067137;29;19931;-72
2022/08/07 03:32:11;;;;;;;;;;;;;;;16.19;100.00;101441.19;10066119;29;20257;-70
2022/08/07 03:37:17;;;;;;;;;;;;;;;16.14;100.00;101436.03;10066413;29;19928;-76
2022/08/07 03:42:33;;;;;;;;;;;;;;;16.22;100.00;101445.53;10066222;29;19928;-72
2022/08/07 03:47:36;;;;;;;;;;;;;;;16.25;100.00;101440.22;10066232;29;19928;-74
2022/08/07 03:52:53;;;;;;;;;;;;;;;16.20;100.00;101440.31;10066018;29;19928;-69
2022/08/07 03:57:58;;;;;;;;;;;;;;;16.34;100.00;101443.59;9729051;29;10000105;-70
2022/08/07 04:03:21;;;;;;;;;;;;;;;16.31;100.00;101453.25;10062177;29;19940;-71
2022/08/07 04:08:25;;;;;;;;;;;;;;;16.35;100.00;101454.91;10062223;29;20508;-69
2022/08/07 04:13:30;;;;;;;;;;;;;;;16.32;100.00;101460.19;10062034;29;19928;-72
2022/08/07 04:18:53;;;;;;;;;;;;;;;16.31;100.00;101463.72;10062184;29;20354;-71
2022/08/07 04:24:09;;;;;;;;;;;;;;;16.39;100.00;101467.09;10061624;29;19939;-71
2022/08/07 04:29:33;;;;;;;;;;;;;;;16.47;100.00;101467.84;10066969;29;19931;-71
2022/08/07 04:34:56;;;;;;;;;;;;;;;16.44;100.00;101467.88;10073254;29;20449;-70
2022/08/07 04:39:59;;;;;;;;;;;;;;;16.56;100.00;101470.31;10061536;29;19935;-69
2022/08/07 04:45:06;;;;;;;;;;;;;;;16.63;100.00;101474.56;10060673;29;19928;-71
2022/08/07 04:50:11;;;;;;;;;;;;;;;16.64;100.00;101481.53;10061759;29;19928;-71
2022/08/07 04:55:18;;;;;;;;;;;;;;;16.72;100.00;101484.91;10060470;29;19950;-70
2022/08/07 05:00:46;;;;;;;;;;;;;;;16.77;100.00;101496.19;10060172;29;19942;-73
2022/08/07 05:05:54;;;;;;;;;;;;;;;16.79;100.00;101497.03;10060113;29;20346;-73
2022/08/07 05:11:05;;;;;;;;;;;;;;;16.80;100.00;101504.84;10059997;29;19939;-73
2022/08/07 05:16:14;;;;;;;;;;;;;;;16.88;100.00;101505.59;10060096;29;19942;-72
2022/08/07 05:21:19;;;;;;;;;;;;;;;16.89;100.00;101509.94;10059901;29;20298;-70
2022/08/07 05:26:43;;;;;;;;;;;;;;;16.92;100.00;101507.28;10059692;29;19929;-71
2022/08/07 05:31:50;;;;;;;;;;;;;;;16.96;100.00;101513.31;10059363;29;19963;-72
2022/08/07 05:36:55;;;;;;;;;;;;;;;17.01;100.00;101511.47;10058746;29;19935;-73
2022/08/07 05:42:00;;;;;;;;;;;;;;;17.09;100.00;101513.06;10058827;29;19928;-73
2022/08/07 05:47:11;;;;;;;;;;;;;;;17.20;99.26;101516.34;10059323;29;20342;-73
2022/08/07 05:52:34;;;;;;;;;;;;;;;17.14;97.27;101510.34;10060468;29;19934;-69
2022/08/07 05:57:38;;;;;;;;;;;;;;;17.23;96.67;101515.44;10061710;29;19939;-71
2022/08/07 06:02:48;;;;;;;;;;;;;;;17.31;96.36;101514.41;10061700;29;19939;-68
2022/08/07 06:07:51;;;;;;;;;;;;;;;17.36;95.32;101506.41;10061572;29;19928;-69
2022/08/07 06:13:14;;;;;;;;;;;;;;;17.44;94.16;101517.66;10061806;29;19929;-70
2022/08/07 06:18:20;;;;;;;;;;;;;;;17.52;92.77;101509.66;10061698;29;20304;-70
2022/08/07 06:23:23;;;;;;;;;;;;;;;17.51;90.06;101516.69;10061596;29;19932;-70
2022/08/07 06:28:50;;;;;;;;;;;;;;;17.61;89.19;101515.59;10061856;29;19938;-70
2022/08/07 06:33:56;;;;;;;;;;;;;;;17.62;88.48;101513.84;10061715;29;19928;-72
2022/08/07 06:39:00;;;;;;;;;;;;;;;17.59;87.61;101520.00;10061192;29;19928;-71
2022/08/07 06:44:24;;;;;;;;;;;;;;;17.63;85.21;101519.06;10061212;29;20384;-73
2022/08/07 06:49:34;;;;;;;;;;;;;;;17.75;84.42;101521.44;10061099;29;19942;-69
2022/08/07 06:54:53;;;;;;;;;;;;;;;17.79;83.17;101528.31;10061148;29;19932;-76
2022/08/07 07:00:17;;;;;;;;;;;;;;;17.81;82.70;101526.53;10061341;29;19928;-72
2022/08/07 07:05:22;;;;;;;;;;;;;;;17.85;82.08;101528.22;10060808;29;20342;-73
2022/08/07 07:10:45;;;;;;;;;;;;;;;17.96;81.61;101526.22;10067581;29;19928;-71
2022/08/07 07:16:03;;;;;;;;;;;;;;;17.97;81.43;101525.31;10067318;29;19967;-73
2022/08/07 07:21:12;;;;;;;;;;;;;;;17.90;79.05;101523.72;10067673;29;20067;-71
2022/08/07 07:26:22;;;;;;;;;;;;;;;17.99;78.50;101520.91;10067510;29;20262;-72
2022/08/07 07:31:39;;;;;;;;;;;;;;;18.03;76.31;101519.91;10067031;29;19935;-72
2022/08/07 07:36:50;;;;;;;;;;;;;;;18.08;75.15;101506.69;10066580;29;19928;-71
2022/08/07 07:41:56;;;;;;;;;;;;;;;18.10;75.33;101503.13;10066415;29;19968;-72
2022/08/07 07:47:16;;;;;;;;;;;;;;;18.16;74.50;101495.13;10066374;29;19928;-72
2022/08/07 07:52:41;;;;;;;;;;;;;;;18.30;74.03;101511.44;10066035;29;19928;-69
2022/08/07 07:57:45;;;;;;;;;;;;;;;18.29;71.50;101503.59;10065230;29;19936;-72
2022/08/07 08:02:56;;;;;;;;;;;;;;;18.31;70.61;101507.00;9391875;29;10000184;-71
2022/08/07 08:08:10;;;;;;;;;;;;;;;18.35;70.53;101501.66;10062261;29;19935;-71
2022/08/07 08:13:35;;;;;;;;;;;;;;;18.52;70.20;101500.44;10061856;29;20257;-72
2022/08/07 08:18:58;;;;;;;;;;;;;;;18.57;69.79;101499.41;10061412;29;20547;-72
2022/08/07 08:30:03;;;;;;;;;;;;;;;18.86;68.92;101503.97;9982099;29;19928;-75
2022/08/07 08:35:09;;;;;;;;;;;;;;;18.87;66.21;101501.28;10046015;29;19947;-71
2022/08/07 08:40:18;;;;;;;;;;;;;;;18.85;66.83;101505.72;10061045;29;20023;-69
2022/08/07 08:45:34;;;;;;;;;;;;;;;18.85;65.16;101504.84;10061137;29;19928;-74
2022/08/07 08:51:00;;;;;;;;;;;;;;;18.87;65.64;101503.03;10060888;29;19928;-74
2022/08/07 08:56:21;;;;;;;;;;;;;;;18.96;65.25;101511.56;10060537;29;19928;-72
2022/08/07 09:01:31;;;;;;;;;;;;;;;19.06;65.18;101499.91;10046536;29;19943;-69
2022/08/07 09:06:53;;;;;;;;;;;;;;;19.10;64.37;101508.56;10021985;29;19928;-69
2022/08/07 09:12:04;;;;;;;;;;;;;;;19.17;64.09;101496.97;10023208;29;20346;-73
2022/08/07 09:17:34;;;;;;;;;;;;;;;19.32;63.37;101501.84;10098210;29;19932;-70
2022/08/07 09:23:01;;;;;;;;;;;;;;;19.47;62.07;101483.84;10097878;29;19928;-71
2022/08/07 09:28:29;;;;;;;;;;;;;;;19.38;60.70;101473.56;10097545;29;20402;-71
2022/08/07 09:34:07;;;;;;;;;;;;;;;19.51;60.45;101479.38;10097671;29;19938;-69
2022/08/07 09:39:20;;;;;;;;;;;;;;;19.79;59.94;101477.66;10097864;29;19939;-68
2022/08/07 09:44:48;;;;;;;;;;;;;;;20.04;59.73;101472.47;10097912;29;19928;-70
2022/08/07 09:50:18;;;;;;;;;;;;;;;20.34;60.98;101456.59;10097330;29;19928;-70
2022/08/07 09:55:26;;;;;;;;;;;;;;;20.79;60.62;101463.88;10072157;29;20372;-69
2022/08/07 10:01:04;;;;;;;;;;;;;;;22.22;60.54;101456.75;10039431;29;19928;-70
2022/08/07 10:06:24;;;;;;;;;;;;;;;30.57;39.33;101427.22;10041981;29;19929;-71
2022/08/07 10:11:37;;;;;;;;;;;;;;;31.67;36.45;101418.47;10041365;29;20367;-69
2022/08/07 10:17:09;;;;;;;;;;;;;;;27.65;42.11;101417.59;10040034;29;20396;-71
2022/08/07 10:22:31;;;;;;;;;;;;;;;25.99;46.28;101417.88;10037058;29;19928;-71
2022/08/07 10:27:46;;;;;;;;;;;;;;;25.57;47.39;101414.13;10043980;29;19932;-71
2022/08/07 10:33:07;;;;;;;;;;;;;;;25.55;47.35;101416.88;10037756;29;19984;-72
2022/08/07 10:38:21;;;;;;;;;;;;;;;25.50;46.01;101413.59;10062083;29;19983;-71
2022/08/07 10:43:52;;;;;;;;;;;;;;;25.38;44.51;101413.41;10026493;29;19944;-73
2022/08/07 10:49:14;;;;;;;;;;;;;;;25.11;44.95;101410.38;10029393;29;19932;-71
2022/08/07 10:54:32;;;;;;;;;;;;;;;25.34;45.72;101407.38;10043657;29;19932;-73
2022/08/07 10:59:41;;;;;;;;;;;;;;;25.53;44.92;101404.59;10043346;29;19936;-69
2022/08/07 11:04:59;;;;;;;;;;;;;;;25.68;44.86;101395.78;10042786;29;19928;-74
2022/08/07 11:10:16;;;;;;;;;;;;;;;25.87;45.46;101401.75;10048127;29;19940;-73
2022/08/07 11:15:22;;;;;;;;;;;;;;;26.11;45.31;101400.41;10055711;29;19928;-73
2022/08/07 11:20:38;;;;;;;;;;;;;;;26.33;45.14;101390.22;10089935;29;19938;-76
2022/08/07 11:25:45;;;;;;;;;;;;;;;26.21;43.24;101390.94;10080099;29;20265;-74
2022/08/07 11:30:54;;;;;;;;;;;;;;;26.45;42.86;101388.63;9729273;29;10000152;-73
2022/08/07 11:36:08;;;;;;;;;;;;;;;26.55;37.60;101377.34;10064149;29;19976;-76
2022/08/07 11:41:15;;;;;;;;;;;;;;;26.75;39.25;101373.53;10062835;29;20360;-74
2022/08/07 11:46:43;;;;;;;;;;;;;;;26.76;39.57;101372.56;10063074;29;20357;-72
2022/08/07 11:51:58;;;;;;;;;;;;;;;27.07;40.50;101369.72;10062201;29;20387;-75
2022/08/07 11:57:10;;;;;;;;;;;;;;;27.26;40.80;101359.63;10062708;29;19955;-74
2022/08/07 12:02:23;;;;;;;;;;;;;;;27.53;40.30;101360.56;10063314;29;20274;-73
2022/08/07 12:07:37;;;;;;;;;;;;;;;27.92;40.13;101352.66;10046737;29;19929;-73
2022/08/07 12:12:43;;;;;;;;;;;;;;;28.25;40.56;101358.41;10023830;29;19967;-74
2022/08/07 12:17:49;;;;;;;;;;;;;;;28.37;39.61;101348.72;10038475;29;19932;-73
2022/08/07 12:23:17;;;;;;;;;;;;;;;28.43;39.03;101343.81;10080949;29;19928;-76
2022/08/07 12:28:46;;;;;;;;;;;;;;;28.21;37.86;101340.03;10023336;29;19939;-75
2022/08/07 12:33:56;;;;;;;;;;;;;;;28.23;39.19;101340.78;10068308;29;20072;-75
2022/08/07 12:39:07;;;;;;;;;;;;;;;28.34;39.65;101340.91;10060199;29;19942;-73
2022/08/07 12:44:32;;;;;;;;;;;;;;;28.11;39.52;101333.59;10059436;29;19932;-73
2022/08/07 12:49:39;;;;;;;;;;;;;;;28.20;40.21;101327.63;10063012;29;19932;-75
2022/08/07 12:54:58;;;;;;;;;;;;;;;28.16;39.21;101324.31;10063451;29;20315;-75
2022/08/07 13:00:09;;;;;;;;;;;;;;;28.03;38.15;101328.78;10063359;29;19932;-74
2022/08/07 13:05:38;;;;;;;;;;;;;;;28.08;39.57;101320.44;10061323;29;19932;-76
2022/08/07 13:11:15;;;;;;;;;;;;;;;28.16;39.63;101312.78;10063484;29;19928;-74
2022/08/07 13:16:27;;;;;;;;;;;;;;;27.53;41.24;101317.88;10063031;29;20327;-76
2022/08/07 13:21:33;;;;;;;;;;;;;;;27.57;42.02;101316.72;10063333;29;19963;-72
2022/08/07 13:27:02;;;;;;;;;;;;;;;26.67;43.22;101315.38;10061254;29;19982;-73
2022/08/07 13:32:13;;;;;;;;;;;;;;;27.21;42.82;101303.91;10060489;29;20392;-74
2022/08/07 13:37:51;;;;;;;;;;;;;;;27.40;42.22;101310.75;9947775;29;9999720;-74
2022/08/07 13:43:05;;;;;;;;;;;;;;;27.60;42.17;101296.97;10057680;29;19987;-74
2022/08/07 13:48:16;;;;;;;;;;;;;;;27.71;41.93;101294.47;10057978;29;20050;-74
2022/08/07 13:53:39;;;;;;;;;;;;;;;28.02;42.41;101291.50;10057717;29;19943;-73
2022/08/07 13:59:07;;;;;;;;;;;;;;;28.15;41.11;101284.34;10057686;29;19928;-74
2022/08/07 14:04:16;;;;;;;;;;;;;;;28.02;40.92;101275.47;10057291;29;20027;-74
2022/08/07 14:09:24;;;;;;;;;;;;;;;28.00;40.74;101280.94;10056967;29;19928;-73
2022/08/07 14:14:51;;;;;;;;;;;;;;;27.77;40.66;101272.69;10057777;29;20418;-69
2022/08/07 14:19:57;;;;;;;;;;;;;;;27.72;39.78;101275.69;10064799;29;19932;-75
2022/08/07 14:25:25;;;;;;;;;;;;;;;27.78;39.78;101263.75;10065075;29;19927;-75
2022/08/07 14:30:32;;;;;;;;;;;;;;;27.75;41.25;101269.31;10064746;29;20072;-76
2022/08/07 14:35:41;;;;;;;;;;;;;;;27.78;41.91;101259.28;10064211;29;19928;-74
2022/08/07 14:40:53;;;;;;;;;;;;;;;27.68;41.75;101250.16;10063742;29;20026;-77
2022/08/07 14:45:58;;;;;;;;;;;;;;;27.47;42.01;101253.41;10078452;29;20401;-75
2022/08/07 14:51:06;;;;;;;;;;;;;;;26.87;42.10;101253.69;10065010;29;19996;-77
2022/08/07 14:56:21;;;;;;;;;;;;;;;26.17;44.06;101256.31;10065757;29;20023;-73
2022/08/07 15:01:34;;;;;;;;;;;;;;;25.43;44.55;101255.34;10064588;29;19929;-74
2022/08/07 15:06:57;;;;;;;;;;;;;;;24.92;46.62;101256.44;10064382;29;20047;-73
2022/08/07 15:12:08;;;;;;;;;;;;;;;24.95;47.31;101248.28;10064793;29;20027;-76
2022/08/07 15:17:35;;;;;;;;;;;;;;;25.14;46.03;101246.31;10025894;29;20372;-74
2022/08/07 15:23:00;;;;;;;;;;;;;;;25.14;46.32;101241.00;10025575;29;19932;-72
2022/08/07 15:28:25;;;;;;;;;;;;;;;24.94;47.19;101233.28;10025217;29;20402;-75
2022/08/07 15:33:41;;;;;;;;;;;;;;;24.56;49.03;101231.84;10025411;29;20235;-73
2022/08/07 15:38:46;;;;;;;;;;;;;;;24.26;49.92;101235.28;10071670;29;19928;-67
2022/08/07 15:44:05;;;;;;;;;;;;;;;24.28;49.27;101228.94;9727395;29;9999815;-69
2022/08/07 15:49:33;;;;;;;;;;;;;;;24.37;48.65;101230.25;8711219;29;10001161;-69
2022/08/07 15:54:59;;;;;;;;;;;;;;;24.31;49.03;101225.28;9716846;29;9999672;-69
2022/08/07 16:00:05;;;;;;;;;;;;;;;24.24;49.54;101223.88;10056738;29;19929;-64
2022/08/07 16:05:12;;;;;;;;;;;;;;;24.08;49.76;101220.28;9724963;29;10000065;-70
2022/08/07 16:10:21;;;;;;;;;;;;;;;23.90;50.40;101214.13;10062153;29;19967;-68
2022/08/07 16:15:33;;;;;;;;;;;;;;;23.75;49.86;101215.75;10063694;29;19983;-71
2022/08/07 16:20:58;;;;;;;;;;;;;;;23.67;49.93;101207.34;10064846;29;19928;-71
2022/08/07 16:26:34;;;;;;;;;;;;;;;23.51;50.95;101218.78;10064467;29;20354;-70
2022/08/07 16:31:40;;;;;;;;;;;;;;;23.37;51.04;101213.28;10064171;29;19929;-71
2022/08/07 16:37:12;;;;;;;;;;;;;;;23.23;51.17;101213.94;9730191;29;10000179;-73
2022/08/07 16:42:52;;;;;;;;;;;;;;;23.13;51.51;101204.72;10060686;29;20418;-68
2022/08/07 16:48:16;;;;;;;;;;;;;;;23.02;51.38;101211.47;10060277;29;19943;-69
2022/08/07 16:53:51;;;;;;;;;;;;;;;22.85;51.81;101218.41;10060345;29;19938;-70
2022/08/07 16:59:17;;;;;;;;;;;;;;;22.76;52.42;101224.13;10058432;29;19928;-71
2022/08/07 17:04:32;;;;;;;;;;;;;;;22.71;53.76;101222.66;10059592;29;20137;-71
2022/08/07 17:09:44;;;;;;;;;;;;;;;22.60;54.51;101224.91;10059051;29;19938;-71
2022/08/07 17:15:18;;;;;;;;;;;;;;;22.44;54.57;101221.22;10059071;29;19930;-70
2022/08/07 17:20:28;;;;;;;;;;;;;;;22.36;54.88;101237.44;10059676;29;20269;-71
2022/08/07 17:25:37;;;;;;;;;;;;;;;22.30;55.74;101240.34;10059580;29;19960;-73
2022/08/07 17:31:00;;;;;;;;;;;;;;;22.19;56.80;101249.69;10059755;29;20315;-70
2022/08/07 17:36:22;;;;;;;;;;;;;;;22.03;57.32;101249.50;10059174;29;20524;-69
2022/08/07 17:41:32;;;;;;;;;;;;;;;21.96;56.89;101245.38;10059047;29;19935;-73
2022/08/07 17:47:02;;;;;;;;;;;;;;;21.89;57.37;101251.00;10059148;29;19944;-69
2022/08/07 17:52:09;;;;;;;;;;;;;;;21.79;57.72;101261.09;10057726;29;19929;-75
2022/08/07 17:57:18;;;;;;;;;;;;;;;21.75;60.53;101270.03;10059020;29;20250;-70
2022/08/07 18:02:27;;;;;;;;;;;;;;;21.66;59.81;101268.63;10058970;29;19928;-70
2022/08/07 18:07:39;;;;;;;;;;;;;;;21.60;60.05;101270.69;10021806;29;19937;-69
2022/08/07 18:13:10;;;;;;;;;;;;;;;21.46;60.49;101273.00;10020696;29;19996;-70
2022/08/07 18:18:18;;;;;;;;;;;;;;;21.40;61.03;101273.25;10020178;29;20015;-70
2022/08/07 18:23:59;;;;;;;;;;;;;;;21.30;61.98;101280.69;10020215;29;20287;-69
2022/08/07 18:29:06;;;;;;;;;;;;;;;21.16;62.60;101277.72;10020627;29;20303;-80
2022/08/07 18:34:39;;;;;;;;;;;;;;;21.02;63.78;101281.81;10033383;29;20009;-72
2022/08/07 18:40:12;;;;;;;;;;;;;;;20.96;65.03;101285.53;10058248;29;19939;-71
2022/08/07 18:45:44;;;;;;;;;;;;;;;20.93;65.15;101287.41;10057983;29;19948;-71
2022/08/07 18:51:17;;;;;;;;;;;;;;;20.82;65.03;101292.22;10057852;29;20011;-70
2022/08/07 18:56:43;;;;;;;;;;;;;;;20.66;66.06;101299.84;10057949;29;19934;-68
2022/08/07 19:02:11;;;;;;;;;;;;;;;20.62;66.68;101298.25;10060503;29;19928;-71
2022/08/07 19:07:38;;;;;;;;;;;;;;;20.48;67.87;101306.63;10064606;29;20350;-66
2022/08/07 19:12:57;;;;;;;;;;;;;;;20.52;68.33;101304.75;10064204;29;20011;-75
2022/08/07 19:18:21;;;;;;;;;;;;;;;20.43;68.66;101305.09;10064118;29;19932;-75
2022/08/07 19:23:40;;;;;;;;;;;;;;;20.34;69.15;101311.56;10064161;29;19932;-74
2022/08/07 19:29:03;;;;;;;;;;;;;;;20.26;71.06;101310.94;10065521;29;20406;-73
2022/08/07 19:34:29;;;;;;;;;;;;;;;20.20;71.98;101313.81;10066966;29;19928;-72
2022/08/07 19:39:38;;;;;;;;;;;;;;;20.16;73.10;101312.19;10066760;29;20310;-73
2022/08/07 19:45:02;;;;;;;;;;;;;;;20.06;73.58;101310.75;10066331;29;19934;-71
2022/08/07 19:50:11;;;;;;;;;;;;;;;20.04;74.74;101315.19;10066263;29;19976;-71
2022/08/07 19:55:36;;;;;;;;;;;;;;;19.97;74.76;101308.41;10066087;29;20334;-71
2022/08/07 20:00:59;;;;;;;;;;;;;;;19.91;75.38;101308.63;10065870;29;20224;-75
2022/08/07 20:06:05;;;;;;;;;;;;;;;19.85;75.95;101313.22;10065548;29;19939;-72
2022/08/07 20:11:20;;;;;;;;;;;;;;;19.80;75.90;101309.88;10065404;29;19938;-75
2022/08/07 20:16:46;;;;;;;;;;;;;;;19.73;75.97;101316.25;10065428;29;19948;-75
2022/08/07 20:21:56;;;;;;;;;;;;;;;19.65;77.55;101316.50;10065277;29;19928;-74
2022/08/07 20:27:05;;;;;;;;;;;;;;;19.53;78.44;101327.44;10064881;29;20338;-75
2022/08/07 20:32:11;;;;;;;;;;;;;;;19.50;78.88;101322.25;10064776;29;19928;-73
2022/08/07 20:37:28;;;;;;;;;;;;;;;19.43;79.38;101321.56;10064429;29;19928;-72
2022/08/07 20:42:54;;;;;;;;;;;;;;;19.32;79.69;101321.06;10064051;29;20347;-72
2022/08/07 20:47:58;;;;;;;;;;;;;;;19.30;80.46;101320.25;10063998;29;20228;-73
2022/08/07 20:53:02;;;;;;;;;;;;;;;19.26;81.25;101329.09;10063832;29;20313;-74
2022/08/07 20:58:08;;;;;;;;;;;;;;;19.23;81.59;101329.19;10063400;29;19928;-74
2022/08/07 21:03:22;;;;;;;;;;;;;;;19.11;82.23;101315.53;10064016;29;19939;-72
2022/08/07 21:08:29;;;;;;;;;;;;;;;19.10;82.66;101324.34;10063460;29;20410;-76
2022/08/07 21:13:46;;;;;;;;;;;;;;;19.01;83.93;101312.31;10063443;29;20366;-73
2022/08/07 21:19:10;;;;;;;;;;;;;;;18.98;84.25;101319.44;10063028;29;20011;-73
2022/08/07 21:24:20;;;;;;;;;;;;;;;18.95;84.58;101320.38;10062231;29;19928;-75
2022/08/07 21:29:30;;;;;;;;;;;;;;;18.92;85.04;101322.22;10063037;29;19996;-73
2022/08/07 21:34:37;;;;;;;;;;;;;;;18.86;85.80;101323.25;10062743;29;19928;-75
2022/08/07 21:39:53;;;;;;;;;;;;;;;18.80;86.49;101320.81;10062850;29;19984;-73
2022/08/07 21:45:03;;;;;;;;;;;;;;;18.77;86.82;101327.94;10062632;29;19928;-73
2022/08/07 21:50:31;;;;;;;;;;;;;;;18.69;86.95;101333.41;9725092;29;9999920;-76
2022/08/07 21:55:41;;;;;;;;;;;;;;;18.65;86.86;101330.91;10059045;29;20020;-76
2022/08/07 22:00:48;;;;;;;;;;;;;;;18.59;86.48;101325.81;10058875;29;19943;-74
2022/08/07 22:05:54;;;;;;;;;;;;;;;18.56;86.82;101334.66;10058588;29;20008;-70
2022/08/07 22:10:59;;;;;;;;;;;;;;;18.48;87.90;101331.38;10058621;29;19928;-72
2022/08/07 22:16:08;;;;;;;;;;;;;;;18.46;88.54;101341.06;10058921;29;19959;-76
2022/08/07 22:21:35;;;;;;;;;;;;;;;18.11;90.89;101331.44;10058832;29;20255;-70
2022/08/07 22:27:01;;;;;;;;;;;;;;;18.21;91.13;101338.19;10058256;29;19938;-68
2022/08/07 22:32:11;;;;;;;;;;;;;;;18.15;91.10;101343.56;10058422;29;19938;-69
2022/08/07 22:37:27;;;;;;;;;;;;;;;18.14;91.16;101357.63;10060995;29;19928;-70
2022/08/07 22:42:52;;;;;;;;;;;;;;;18.08;91.75;101342.03;10065359;29;19934;-69
2022/08/07 22:48:05;;;;;;;;;;;;;;;18.10;91.17;101336.75;10065952;29;19981;-67
2022/08/07 22:53:32;;;;;;;;;;;;;;;18.11;91.48;101341.06;10026974;29;19928;-71
2022/08/07 22:59:13;;;;;;;;;;;;;;;18.12;91.53;101348.06;10026808;29;19938;-71
2022/08/07 23:04:25;;;;;;;;;;;;;;;18.06;91.79;101350.84;10017817;29;19940;-73
2022/08/07 23:09:38;;;;;;;;;;;;;;;18.10;91.73;101355.13;10026315;29;20347;-75
2022/08/07 23:15:09;;;;;;;;;;;;;;;18.06;91.82;101358.72;10026509;29;20052;-69
2022/08/07 23:20:28;;;;;;;;;;;;;;;17.80;93.46;101367.25;10026219;29;19996;-66
2022/08/07 23:26:01;;;;;;;;;;;;;;;17.75;94.10;101363.84;10025911;29;19939;-66
2022/08/07 23:31:18;;;;;;;;;;;;;;;17.71;94.26;101364.81;10025708;29;19980;-66
2022/08/07 23:36:46;;;;;;;;;;;;;;;17.63;94.62;101373.78;10025924;29;19935;-67
2022/08/07 23:42:15;;;;;;;;;;;;;;;17.82;93.91;101377.69;10027635;29;19929;-71
2022/08/07 23:47:33;;;;;;;;;;;;;;;17.92;92.93;101374.81;10027416;29;20274;-74
2022/08/07 23:52:56;;;;;;;;;;;;;;;17.90;92.68;101370.50;10028230;29;19928;-74
2022/08/07 23:58:11;;;;;;;;;;;;;;;17.83;92.69;101368.91;10027789;29;19928;-72
